sensor_id;sensor_type;location;lat;lon;timestamp;P1;durP1;ratioP1;P2;durP2;ratioP2
40945;SDS011;55635;50.264;11.918;2023-04-24T00:00:36;3.05;;;2.55;;
40945;SDS011;55635;50.264;11.918;2023-04-24T00:03:23;5.05;;;2.97;;
40945;SDS011;55635;50.264;11.918;2023-04-24T00:06:05;3.17;;;2.90;;
40945;SDS011;55635;50.264;11.918;2023-04-24T00:08:50;2.80;;;2.60;;
40945;SDS011;55635;50.264;11.918;2023-04-24T00:11:31;2.70;;;2.50;;
40945;SDS011;55635;50.264;11.918;2023-04-24T00:14:12;2.83;;;2.10;;
40945;SDS011;55635;50.264;11.918;2023-04-24T00:16:53;2.88;;;2.63;;
40945;SDS011;55635;50.264;11.918;2023-04-24T00:19:35;3.10;;;2.67;;
40945;SDS011;55635;50.264;11.918;2023-04-24T00:22:18;3.75;;;2.35;;
40945;SDS011;55635;50.264;11.918;2023-04-24T00:25:00;3.35;;;2.40;;
40945;SDS011;55635;50.264;11.918;2023-04-24T00:27:42;3.58;;;2.80;;
40945;SDS011;55635;50.264;11.918;2023-04-24T00:30:23;3.40;;;2.92;;
40945;SDS011;55635;50.264;11.918;2023-04-24T00:33:06;4.30;;;2.90;;
40945;SDS011;55635;50.264;11.918;2023-04-24T00:35:48;2.47;;;2.28;;
40945;SDS011;55635;50.264;11.918;2023-04-24T00:38:29;4.18;;;2.58;;
40945;SDS011;55635;50.264;11.918;2023-04-24T00:41:11;4.15;;;2.70;;
40945;SDS011;55635;50.264;11.918;2023-04-24T00:43:52;3.95;;;2.55;;
40945;SDS011;55635;50.264;11.918;2023-04-24T00:46:35;3.88;;;2.35;;
40945;SDS011;55635;50.264;11.918;2023-04-24T00:49:16;5.95;;;2.67;;
40945;SDS011;55635;50.264;11.918;2023-04-24T00:51:58;2.95;;;2.65;;
40945;SDS011;55635;50.264;11.918;2023-04-24T00:54:40;5.53;;;3.15;;
40945;SDS011;55635;50.264;11.918;2023-04-24T00:57:22;2.80;;;2.38;;
40945;SDS011;55635;50.264;11.918;2023-04-24T01:00:05;3.70;;;2.92;;
40945;SDS011;55635;50.264;11.918;2023-04-24T01:02:51;3.03;;;2.70;;
40945;SDS011;55635;50.264;11.918;2023-04-24T01:05:33;6.25;;;2.55;;
40945;SDS011;55635;50.264;11.918;2023-04-24T01:08:14;4.00;;;3.13;;
40945;SDS011;55635;50.264;11.918;2023-04-24T01:10:56;2.97;;;2.67;;
40945;SDS011;55635;50.264;11.918;2023-04-24T01:13:40;4.82;;;3.05;;
40945;SDS011;55635;50.264;11.918;2023-04-24T01:16:23;2.67;;;2.45;;
40945;SDS011;55635;50.264;11.918;2023-04-24T01:19:07;3.40;;;2.40;;
40945;SDS011;55635;50.264;11.918;2023-04-24T01:21:53;3.80;;;2.72;;
40945;SDS011;55635;50.264;11.918;2023-04-24T01:24:37;4.70;;;2.88;;
40945;SDS011;55635;50.264;11.918;2023-04-24T01:27:25;5.57;;;3.15;;
40945;SDS011;55635;50.264;11.918;2023-04-24T01:30:07;3.03;;;2.55;;
40945;SDS011;55635;50.264;11.918;2023-04-24T01:32:49;3.35;;;2.30;;
40945;SDS011;55635;50.264;11.918;2023-04-24T01:35:31;4.05;;;2.70;;
40945;SDS011;55635;50.264;11.918;2023-04-24T01:38:12;3.10;;;2.80;;
40945;SDS011;55635;50.264;11.918;2023-04-24T01:40:55;2.63;;;2.40;;
40945;SDS011;55635;50.264;11.918;2023-04-24T01:43:36;4.63;;;2.67;;
40945;SDS011;55635;50.264;11.918;2023-04-24T01:46:19;3.78;;;2.70;;
40945;SDS011;55635;50.264;11.918;2023-04-24T01:49:02;7.03;;;3.10;;
40945;SDS011;55635;50.264;11.918;2023-04-24T01:51:46;2.72;;;2.50;;
40945;SDS011;55635;50.264;11.918;2023-04-24T01:54:27;3.30;;;2.47;;
40945;SDS011;55635;50.264;11.918;2023-04-24T01:57:10;2.95;;;2.40;;
40945;SDS011;55635;50.264;11.918;2023-04-24T01:59:51;2.65;;;2.40;;
40945;SDS011;55635;50.264;11.918;2023-04-24T02:02:32;4.88;;;2.47;;
40945;SDS011;55635;50.264;11.918;2023-04-24T02:05:13;2.85;;;2.65;;
40945;SDS011;55635;50.264;11.918;2023-04-24T02:07:55;3.05;;;2.40;;
40945;SDS011;55635;50.264;11.918;2023-04-24T02:10:38;3.85;;;2.50;;
40945;SDS011;55635;50.264;11.918;2023-04-24T02:13:20;4.18;;;2.78;;
40945;SDS011;55635;50.264;11.918;2023-04-24T02:16:01;2.88;;;2.47;;
40945;SDS011;55635;50.264;11.918;2023-04-24T02:18:43;4.70;;;2.10;;
40945;SDS011;55635;50.264;11.918;2023-04-24T02:21:25;3.42;;;2.13;;
40945;SDS011;55635;50.264;11.918;2023-04-24T02:24:10;2.55;;;2.35;;
40945;SDS011;55635;50.264;11.918;2023-04-24T02:26:54;3.40;;;2.20;;
40945;SDS011;55635;50.264;11.918;2023-04-24T02:29:37;4.60;;;2.78;;
40945;SDS011;55635;50.264;11.918;2023-04-24T02:32:18;2.97;;;2.40;;
40945;SDS011;55635;50.264;11.918;2023-04-24T02:34:59;4.97;;;2.58;;
40945;SDS011;55635;50.264;11.918;2023-04-24T02:37:41;4.40;;;3.05;;
40945;SDS011;55635;50.264;11.918;2023-04-24T02:40:26;4.72;;;3.20;;
40945;SDS011;55635;50.264;11.918;2023-04-24T02:43:06;3.72;;;3.35;;
40945;SDS011;55635;50.264;11.918;2023-04-24T02:45:48;5.13;;;3.60;;
40945;SDS011;55635;50.264;11.918;2023-04-24T02:48:31;4.82;;;3.50;;
40945;SDS011;55635;50.264;11.918;2023-04-24T02:51:12;4.38;;;3.90;;
40945;SDS011;55635;50.264;11.918;2023-04-24T02:53:54;4.05;;;3.75;;
40945;SDS011;55635;50.264;11.918;2023-04-24T02:56:35;3.60;;;3.30;;
40945;SDS011;55635;50.264;11.918;2023-04-24T02:59:18;3.95;;;2.95;;
40945;SDS011;55635;50.264;11.918;2023-04-24T03:01:59;4.65;;;3.20;;
40945;SDS011;55635;50.264;11.918;2023-04-24T03:04:41;3.67;;;2.95;;
40945;SDS011;55635;50.264;11.918;2023-04-24T03:07:23;4.97;;;3.15;;
40945;SDS011;55635;50.264;11.918;2023-04-24T03:10:04;6.38;;;3.28;;
40945;SDS011;55635;50.264;11.918;2023-04-24T03:12:47;3.17;;;2.97;;
40945;SDS011;55635;50.264;11.918;2023-04-24T03:15:28;4.15;;;2.78;;
40945;SDS011;55635;50.264;11.918;2023-04-24T03:18:09;9.90;;;3.63;;
40945;SDS011;55635;50.264;11.918;2023-04-24T03:20:50;5.40;;;2.88;;
40945;SDS011;55635;50.264;11.918;2023-04-24T03:23:32;5.15;;;3.47;;
40945;SDS011;55635;50.264;11.918;2023-04-24T03:26:14;3.13;;;2.78;;
40945;SDS011;55635;50.264;11.918;2023-04-24T03:29:07;5.00;;;2.78;;
40945;SDS011;55635;50.264;11.918;2023-04-24T03:31:48;3.65;;;2.55;;
40945;SDS011;55635;50.264;11.918;2023-04-24T03:34:29;2.58;;;2.30;;
40945;SDS011;55635;50.264;11.918;2023-04-24T03:37:11;2.47;;;2.28;;
40945;SDS011;55635;50.264;11.918;2023-04-24T03:39:56;3.92;;;3.13;;
40945;SDS011;55635;50.264;11.918;2023-04-24T03:42:39;3.20;;;3.00;;
40945;SDS011;55635;50.264;11.918;2023-04-24T03:45:20;5.82;;;2.70;;
40945;SDS011;55635;50.264;11.918;2023-04-24T03:48:04;4.10;;;2.92;;
40945;SDS011;55635;50.264;11.918;2023-04-24T03:50:46;3.13;;;2.40;;
40945;SDS011;55635;50.264;11.918;2023-04-24T03:53:30;3.80;;;2.60;;
40945;SDS011;55635;50.264;11.918;2023-04-24T03:56:13;6.85;;;2.75;;
40945;SDS011;55635;50.264;11.918;2023-04-24T03:58:58;3.10;;;2.80;;
40945;SDS011;55635;50.264;11.918;2023-04-24T04:01:42;2.88;;;2.60;;
40945;SDS011;55635;50.264;11.918;2023-04-24T04:04:29;3.45;;;2.97;;
40945;SDS011;55635;50.264;11.918;2023-04-24T04:07:12;4.63;;;3.17;;
40945;SDS011;55635;50.264;11.918;2023-04-24T04:09:53;5.38;;;3.45;;
40945;SDS011;55635;50.264;11.918;2023-04-24T04:12:37;4.65;;;3.40;;
40945;SDS011;55635;50.264;11.918;2023-04-24T04:15:18;4.32;;;3.60;;
40945;SDS011;55635;50.264;11.918;2023-04-24T04:18:00;5.93;;;3.65;;
40945;SDS011;55635;50.264;11.918;2023-04-24T04:20:42;4.68;;;4.03;;
40945;SDS011;55635;50.264;11.918;2023-04-24T04:23:26;6.10;;;4.22;;
40945;SDS011;55635;50.264;11.918;2023-04-24T04:26:40;5.95;;;4.95;;
40945;SDS011;55635;50.264;11.918;2023-04-24T04:29:23;5.72;;;4.93;;
40945;SDS011;55635;50.264;11.918;2023-04-24T04:32:06;5.00;;;4.60;;
40945;SDS011;55635;50.264;11.918;2023-04-24T04:34:48;6.80;;;4.65;;
40945;SDS011;55635;50.264;11.918;2023-04-24T04:37:30;6.32;;;4.40;;
40945;SDS011;55635;50.264;11.918;2023-04-24T04:40:43;4.45;;;4.03;;
40945;SDS011;55635;50.264;11.918;2023-04-24T04:43:26;4.93;;;4.40;;
40945;SDS011;55635;50.264;11.918;2023-04-24T04:46:09;6.68;;;4.78;;
40945;SDS011;55635;50.264;11.918;2023-04-24T04:49:11;4.57;;;4.18;;
40945;SDS011;55635;50.264;11.918;2023-04-24T04:52:42;5.32;;;4.07;;
40945;SDS011;55635;50.264;11.918;2023-04-24T04:55:38;5.88;;;4.28;;
40945;SDS011;55635;50.264;11.918;2023-04-24T04:58:33;4.40;;;4.00;;
40945;SDS011;55635;50.264;11.918;2023-04-24T05:01:16;7.97;;;3.67;;
40945;SDS011;55635;50.264;11.918;2023-04-24T05:04:00;4.80;;;3.78;;
40945;SDS011;55635;50.264;11.918;2023-04-24T05:06:41;4.10;;;3.70;;
40945;SDS011;55635;50.264;11.918;2023-04-24T05:09:23;4.95;;;3.30;;
40945;SDS011;55635;50.264;11.918;2023-04-24T05:12:10;3.97;;;2.90;;
40945;SDS011;55635;50.264;11.918;2023-04-24T05:15:00;6.03;;;3.03;;
40945;SDS011;55635;50.264;11.918;2023-04-24T05:17:41;4.25;;;3.30;;
40945;SDS011;55635;50.264;11.918;2023-04-24T05:20:24;3.17;;;2.83;;
40945;SDS011;55635;50.264;11.918;2023-04-24T05:23:09;4.88;;;3.10;;
40945;SDS011;55635;50.264;11.918;2023-04-24T05:25:52;4.88;;;3.22;;
40945;SDS011;55635;50.264;11.918;2023-04-24T05:28:34;4.93;;;2.85;;
40945;SDS011;55635;50.264;11.918;2023-04-24T05:31:21;2.53;;;2.33;;
40945;SDS011;55635;50.264;11.918;2023-04-24T05:34:03;3.17;;;2.80;;
40945;SDS011;55635;50.264;11.918;2023-04-24T05:36:45;3.60;;;2.72;;
40945;SDS011;55635;50.264;11.918;2023-04-24T05:39:28;4.80;;;2.50;;
40945;SDS011;55635;50.264;11.918;2023-04-24T05:42:09;5.18;;;2.60;;
40945;SDS011;55635;50.264;11.918;2023-04-24T05:44:50;3.88;;;2.25;;
40945;SDS011;55635;50.264;11.918;2023-04-24T05:47:31;5.70;;;2.50;;
40945;SDS011;55635;50.264;11.918;2023-04-24T05:50:13;3.80;;;2.28;;
40945;SDS011;55635;50.264;11.918;2023-04-24T05:52:55;3.90;;;2.22;;
40945;SDS011;55635;50.264;11.918;2023-04-24T05:55:42;2.58;;;2.20;;
40945;SDS011;55635;50.264;11.918;2023-04-24T05:58:24;4.25;;;2.33;;
40945;SDS011;55635;50.264;11.918;2023-04-24T06:01:06;2.53;;;2.10;;
40945;SDS011;55635;50.264;11.918;2023-04-24T06:03:49;2.40;;;1.88;;
40945;SDS011;55635;50.264;11.918;2023-04-24T06:06:30;2.83;;;1.90;;
40945;SDS011;55635;50.264;11.918;2023-04-24T06:09:11;3.22;;;1.73;;
40945;SDS011;55635;50.264;11.918;2023-04-24T06:11:53;3.55;;;1.98;;
40945;SDS011;55635;50.264;11.918;2023-04-24T06:14:37;2.10;;;1.90;;
40945;SDS011;55635;50.264;11.918;2023-04-24T06:17:48;3.00;;;2.10;;
40945;SDS011;55635;50.264;11.918;2023-04-24T06:20:31;3.15;;;1.75;;
40945;SDS011;55635;50.264;11.918;2023-04-24T06:23:16;4.18;;;2.30;;
40945;SDS011;55635;50.264;11.918;2023-04-24T06:25:57;3.63;;;1.88;;
40945;SDS011;55635;50.264;11.918;2023-04-24T06:28:38;2.08;;;1.80;;
40945;SDS011;55635;50.264;11.918;2023-04-24T06:31:20;2.85;;;1.77;;
40945;SDS011;55635;50.264;11.918;2023-04-24T06:34:01;3.63;;;1.80;;
40945;SDS011;55635;50.264;11.918;2023-04-24T06:36:44;3.75;;;2.17;;
40945;SDS011;55635;50.264;11.918;2023-04-24T06:39:26;3.42;;;1.65;;
40945;SDS011;55635;50.264;11.918;2023-04-24T06:42:07;3.20;;;1.48;;
40945;SDS011;55635;50.264;11.918;2023-04-24T06:44:49;3.95;;;1.60;;
40945;SDS011;55635;50.264;11.918;2023-04-24T06:47:30;1.30;;;1.20;;
40945;SDS011;55635;50.264;11.918;2023-04-24T06:50:12;2.15;;;1.80;;
40945;SDS011;55635;50.264;11.918;2023-04-24T06:52:56;4.75;;;1.65;;
40945;SDS011;55635;50.264;11.918;2023-04-24T06:55:37;3.40;;;1.77;;
40945;SDS011;55635;50.264;11.918;2023-04-24T06:58:18;2.00;;;1.80;;
40945;SDS011;55635;50.264;11.918;2023-04-24T07:01:00;2.10;;;1.20;;
40945;SDS011;55635;50.264;11.918;2023-04-24T07:03:41;2.03;;;1.13;;
40945;SDS011;55635;50.264;11.918;2023-04-24T07:06:22;1.67;;;1.20;;
40945;SDS011;55635;50.264;11.918;2023-04-24T07:09:04;5.07;;;1.70;;
40945;SDS011;55635;50.264;11.918;2023-04-24T07:11:45;2.45;;;1.40;;
40945;SDS011;55635;50.264;11.918;2023-04-24T07:14:26;2.42;;;1.30;;
40945;SDS011;55635;50.264;11.918;2023-04-24T07:17:07;4.97;;;1.52;;
40945;SDS011;55635;50.264;11.918;2023-04-24T07:19:48;1.30;;;1.20;;
40945;SDS011;55635;50.264;11.918;2023-04-24T07:22:29;1.85;;;1.52;;
40945;SDS011;55635;50.264;11.918;2023-04-24T07:25:10;5.45;;;1.17;;
40945;SDS011;55635;50.264;11.918;2023-04-24T07:27:57;2.30;;;1.38;;
40945;SDS011;55635;50.264;11.918;2023-04-24T07:30:37;5.80;;;1.27;;
40945;SDS011;55635;50.264;11.918;2023-04-24T07:33:19;2.33;;;1.15;;
40945;SDS011;55635;50.264;11.918;2023-04-24T07:35:59;3.38;;;1.83;;
40945;SDS011;55635;50.264;11.918;2023-04-24T07:38:41;2.25;;;1.10;;
40945;SDS011;55635;50.264;11.918;2023-04-24T07:41:23;1.33;;;1.10;;
40945;SDS011;55635;50.264;11.918;2023-04-24T07:44:04;2.97;;;1.27;;
40945;SDS011;55635;50.264;11.918;2023-04-24T07:46:45;1.95;;;1.13;;
40945;SDS011;55635;50.264;11.918;2023-04-24T07:49:29;2.70;;;1.10;;
40945;SDS011;55635;50.264;11.918;2023-04-24T07:52:11;3.22;;;1.55;;
40945;SDS011;55635;50.264;11.918;2023-04-24T07:54:51;1.35;;;1.20;;
40945;SDS011;55635;50.264;11.918;2023-04-24T07:57:38;0.70;;;0.70;;
40945;SDS011;55635;50.264;11.918;2023-04-24T08:00:20;2.72;;;1.02;;
40945;SDS011;55635;50.264;11.918;2023-04-24T08:03:01;2.25;;;0.93;;
40945;SDS011;55635;50.264;11.918;2023-04-24T08:05:42;3.30;;;1.00;;
40945;SDS011;55635;50.264;11.918;2023-04-24T08:08:24;2.22;;;0.80;;
40945;SDS011;55635;50.264;11.918;2023-04-24T08:11:05;0.80;;;0.80;;
40945;SDS011;55635;50.264;11.918;2023-04-24T08:13:46;1.27;;;0.80;;
40945;SDS011;55635;50.264;11.918;2023-04-24T08:16:29;1.25;;;0.80;;
40945;SDS011;55635;50.264;11.918;2023-04-24T08:19:10;2.72;;;1.00;;
40945;SDS011;55635;50.264;11.918;2023-04-24T08:21:51;1.50;;;0.70;;
40945;SDS011;55635;50.264;11.918;2023-04-24T08:24:32;1.70;;;0.63;;
40945;SDS011;55635;50.264;11.918;2023-04-24T08:27:38;2.45;;;0.90;;
40945;SDS011;55635;50.264;11.918;2023-04-24T08:30:21;0.88;;;0.60;;
40945;SDS011;55635;50.264;11.918;2023-04-24T08:33:02;1.70;;;0.60;;
40945;SDS011;55635;50.264;11.918;2023-04-24T08:35:45;1.77;;;0.80;;
40945;SDS011;55635;50.264;11.918;2023-04-24T08:38:26;1.10;;;0.80;;
40945;SDS011;55635;50.264;11.918;2023-04-24T08:41:09;2.25;;;0.63;;
40945;SDS011;55635;50.264;11.918;2023-04-24T08:43:50;0.80;;;0.80;;
40945;SDS011;55635;50.264;11.918;2023-04-24T08:46:32;0.73;;;0.73;;
40945;SDS011;55635;50.264;11.918;2023-04-24T08:49:14;2.00;;;0.82;;
40945;SDS011;55635;50.264;11.918;2023-04-24T08:51:58;4.28;;;1.00;;
40945;SDS011;55635;50.264;11.918;2023-04-24T08:54:40;1.77;;;0.80;;
40945;SDS011;55635;50.264;11.918;2023-04-24T08:57:24;0.93;;;0.77;;
40945;SDS011;55635;50.264;11.918;2023-04-24T09:00:11;1.20;;;0.80;;
40945;SDS011;55635;50.264;11.918;2023-04-24T09:02:53;1.25;;;0.70;;
40945;SDS011;55635;50.264;11.918;2023-04-24T09:05:38;2.15;;;0.73;;
40945;SDS011;55635;50.264;11.918;2023-04-24T09:08:25;1.83;;;0.82;;
40945;SDS011;55635;50.264;11.918;2023-04-24T09:11:08;1.75;;;0.90;;
40945;SDS011;55635;50.264;11.918;2023-04-24T09:13:50;0.75;;;0.75;;
40945;SDS011;55635;50.264;11.918;2023-04-24T09:16:33;1.00;;;0.82;;
40945;SDS011;55635;50.264;11.918;2023-04-24T09:19:14;1.52;;;0.77;;
40945;SDS011;55635;50.264;11.918;2023-04-24T09:21:55;1.80;;;0.73;;
40945;SDS011;55635;50.264;11.918;2023-04-24T09:24:36;1.30;;;0.75;;
40945;SDS011;55635;50.264;11.918;2023-04-24T09:27:22;2.00;;;1.13;;
40945;SDS011;55635;50.264;11.918;2023-04-24T09:30:05;0.90;;;0.90;;
40945;SDS011;55635;50.264;11.918;2023-04-24T09:33:11;1.08;;;0.98;;
40945;SDS011;55635;50.264;11.918;2023-04-24T09:35:56;0.85;;;0.85;;
40945;SDS011;55635;50.264;11.918;2023-04-24T09:38:40;4.50;;;1.30;;
40945;SDS011;55635;50.264;11.918;2023-04-24T09:41:20;3.33;;;1.15;;
40945;SDS011;55635;50.264;11.918;2023-04-24T09:44:12;1.10;;;0.77;;
40945;SDS011;55635;50.264;11.918;2023-04-24T09:46:58;4.95;;;0.95;;
40945;SDS011;55635;50.264;11.918;2023-04-24T09:49:40;3.13;;;0.95;;
40945;SDS011;55635;50.264;11.918;2023-04-24T09:52:23;1.70;;;1.15;;
40945;SDS011;55635;50.264;11.918;2023-04-24T09:55:10;1.20;;;1.10;;
40945;SDS011;55635;50.264;11.918;2023-04-24T09:58:01;2.88;;;1.40;;
40945;SDS011;55635;50.264;11.918;2023-04-24T10:00:45;1.85;;;1.00;;
40945;SDS011;55635;50.264;11.918;2023-04-24T10:03:27;2.42;;;1.48;;
40945;SDS011;55635;50.264;11.918;2023-04-24T10:06:13;5.65;;;1.17;;
40945;SDS011;55635;50.264;11.918;2023-04-24T10:08:55;2.78;;;1.52;;
40945;SDS011;55635;50.264;11.918;2023-04-24T10:11:39;1.65;;;1.10;;
40945;SDS011;55635;50.264;11.918;2023-04-24T10:14:26;1.30;;;1.20;;
40945;SDS011;55635;50.264;11.918;2023-04-24T10:17:07;1.58;;;1.08;;
40945;SDS011;55635;50.264;11.918;2023-04-24T10:19:52;1.88;;;1.33;;
40945;SDS011;55635;50.264;11.918;2023-04-24T10:22:34;1.38;;;1.27;;
40945;SDS011;55635;50.264;11.918;2023-04-24T10:25:16;1.75;;;1.33;;
40945;SDS011;55635;50.264;11.918;2023-04-24T10:28:03;1.90;;;1.80;;
40945;SDS011;55635;50.264;11.918;2023-04-24T10:30:47;1.80;;;1.45;;
40945;SDS011;55635;50.264;11.918;2023-04-24T10:33:29;1.80;;;1.70;;
40945;SDS011;55635;50.264;11.918;2023-04-24T10:36:11;3.38;;;1.85;;
40945;SDS011;55635;50.264;11.918;2023-04-24T10:38:55;1.85;;;1.75;;
40945;SDS011;55635;50.264;11.918;2023-04-24T10:41:39;2.03;;;1.70;;
40945;SDS011;55635;50.264;11.918;2023-04-24T10:44:20;3.53;;;1.50;;
40945;SDS011;55635;50.264;11.918;2023-04-24T10:47:02;2.20;;;2.00;;
40945;SDS011;55635;50.264;11.918;2023-04-24T10:49:43;1.55;;;1.45;;
40945;SDS011;55635;50.264;11.918;2023-04-24T10:52:30;2.85;;;1.73;;
40945;SDS011;55635;50.264;11.918;2023-04-24T10:55:38;1.90;;;1.80;;
40945;SDS011;55635;50.264;11.918;2023-04-24T10:58:22;3.92;;;1.70;;
40945;SDS011;55635;50.264;11.918;2023-04-24T11:01:04;1.75;;;1.63;;
40945;SDS011;55635;50.264;11.918;2023-04-24T11:03:50;2.03;;;1.60;;
40945;SDS011;55635;50.264;11.918;2023-04-24T11:06:36;2.67;;;1.35;;
40945;SDS011;55635;50.264;11.918;2023-04-24T11:09:17;1.30;;;1.20;;
40945;SDS011;55635;50.264;11.918;2023-04-24T11:12:05;3.95;;;1.60;;
40945;SDS011;55635;50.264;11.918;2023-04-24T11:17:38;1.17;;;1.08;;
40945;SDS011;55635;50.264;11.918;2023-04-24T11:20:23;1.70;;;1.50;;
40945;SDS011;55635;50.264;11.918;2023-04-24T11:23:12;1.43;;;1.33;;
40945;SDS011;55635;50.264;11.918;2023-04-24T11:26:10;4.13;;;1.40;;
40945;SDS011;55635;50.264;11.918;2023-04-24T11:28:52;1.33;;;1.23;;
40945;SDS011;55635;50.264;11.918;2023-04-24T11:31:38;2.03;;;1.38;;
40945;SDS011;55635;50.264;11.918;2023-04-24T11:34:33;1.88;;;1.48;;
40945;SDS011;55635;50.264;11.918;2023-04-24T11:37:14;1.65;;;1.40;;
40945;SDS011;55635;50.264;11.918;2023-04-24T11:39:56;2.28;;;1.27;;
40945;SDS011;55635;50.264;11.918;2023-04-24T11:42:39;1.48;;;1.38;;
40945;SDS011;55635;50.264;11.918;2023-04-24T11:45:25;2.53;;;1.60;;
40945;SDS011;55635;50.264;11.918;2023-04-24T11:48:09;1.92;;;1.50;;
40945;SDS011;55635;50.264;11.918;2023-04-24T11:50:51;1.33;;;1.23;;
40945;SDS011;55635;50.264;11.918;2023-04-24T11:53:32;2.90;;;1.35;;
40945;SDS011;55635;50.264;11.918;2023-04-24T11:56:16;1.55;;;1.10;;
40945;SDS011;55635;50.264;11.918;2023-04-24T11:58:59;1.20;;;1.10;;
40945;SDS011;55635;50.264;11.918;2023-04-24T12:01:46;1.35;;;1.25;;
40945;SDS011;55635;50.264;11.918;2023-04-24T12:04:37;2.00;;;1.42;;
40945;SDS011;55635;50.264;11.918;2023-04-24T12:07:22;3.95;;;1.63;;
40945;SDS011;55635;50.264;11.918;2023-04-24T12:10:04;1.40;;;1.30;;
40945;SDS011;55635;50.264;11.918;2023-04-24T12:12:48;1.10;;;1.02;;
40945;SDS011;55635;50.264;11.918;2023-04-24T12:15:31;0.70;;;0.70;;
40945;SDS011;55635;50.264;11.918;2023-04-24T12:18:12;0.88;;;0.88;;
40945;SDS011;55635;50.264;11.918;2023-04-24T12:20:53;1.00;;;0.90;;
40945;SDS011;55635;50.264;11.918;2023-04-24T12:23:42;2.65;;;0.93;;
40945;SDS011;55635;50.264;11.918;2023-04-24T12:26:25;0.80;;;0.80;;
40945;SDS011;55635;50.264;11.918;2023-04-24T12:29:07;2.15;;;1.00;;
40945;SDS011;55635;50.264;11.918;2023-04-24T12:31:49;0.98;;;0.90;;
40945;SDS011;55635;50.264;11.918;2023-04-24T12:34:34;1.55;;;1.20;;
40945;SDS011;55635;50.264;11.918;2023-04-24T12:37:15;0.98;;;0.90;;
40945;SDS011;55635;50.264;11.918;2023-04-24T12:40:03;0.90;;;0.90;;
40945;SDS011;55635;50.264;11.918;2023-04-24T12:42:48;1.20;;;1.08;;
40945;SDS011;55635;50.264;11.918;2023-04-24T12:45:30;1.65;;;1.00;;
40945;SDS011;55635;50.264;11.918;2023-04-24T12:48:11;1.33;;;1.10;;
40945;SDS011;55635;50.264;11.918;2023-04-24T12:50:54;1.70;;;1.00;;
40945;SDS011;55635;50.264;11.918;2023-04-24T12:53:36;3.28;;;1.10;;
40945;SDS011;55635;50.264;11.918;2023-04-24T12:56:17;1.17;;;1.08;;
40945;SDS011;55635;50.264;11.918;2023-04-24T12:58:58;1.38;;;1.27;;
40945;SDS011;55635;50.264;11.918;2023-04-24T13:01:40;1.33;;;1.15;;
40945;SDS011;55635;50.264;11.918;2023-04-24T13:04:24;1.00;;;1.00;;
40945;SDS011;55635;50.264;11.918;2023-04-24T13:07:05;1.40;;;1.30;;
40945;SDS011;55635;50.264;11.918;2023-04-24T13:09:47;1.85;;;1.75;;
40945;SDS011;55635;50.264;11.918;2023-04-24T13:12:56;2.10;;;1.98;;
40945;SDS011;55635;50.264;11.918;2023-04-24T13:15:37;13.00;;;2.17;;
40945;SDS011;55635;50.264;11.918;2023-04-24T13:18:18;2.53;;;1.75;;
40945;SDS011;55635;50.264;11.918;2023-04-24T13:21:00;3.58;;;1.77;;
40945;SDS011;55635;50.264;11.918;2023-04-24T13:23:43;1.92;;;1.70;;
40945;SDS011;55635;50.264;11.918;2023-04-24T13:26:24;2.50;;;1.98;;
40945;SDS011;55635;50.264;11.918;2023-04-24T13:29:05;2.20;;;2.00;;
40945;SDS011;55635;50.264;11.918;2023-04-24T13:31:46;2.67;;;2.33;;
40945;SDS011;55635;50.264;11.918;2023-04-24T13:34:27;1.90;;;1.80;;
40945;SDS011;55635;50.264;11.918;2023-04-24T13:37:08;2.10;;;1.98;;
40945;SDS011;55635;50.264;11.918;2023-04-24T13:39:49;2.70;;;1.90;;
40945;SDS011;55635;50.264;11.918;2023-04-24T13:42:30;1.77;;;1.65;;
40945;SDS011;55635;50.264;11.918;2023-04-24T13:45:11;1.48;;;1.38;;
40945;SDS011;55635;50.264;11.918;2023-04-24T13:47:53;1.40;;;1.30;;
40945;SDS011;55635;50.264;11.918;2023-04-24T13:50:34;1.50;;;1.35;;
40945;SDS011;55635;50.264;11.918;2023-04-24T13:53:15;1.77;;;1.67;;
40945;SDS011;55635;50.264;11.918;2023-04-24T13:55:56;2.10;;;2.00;;
40945;SDS011;55635;50.264;11.918;2023-04-24T13:58:36;2.17;;;1.70;;
40945;SDS011;55635;50.264;11.918;2023-04-24T14:01:18;1.58;;;1.48;;
40945;SDS011;55635;50.264;11.918;2023-04-24T14:04:01;1.90;;;1.80;;
40945;SDS011;55635;50.264;11.918;2023-04-24T14:06:43;2.78;;;1.20;;
40945;SDS011;55635;50.264;11.918;2023-04-24T14:09:25;1.75;;;1.65;;
40945;SDS011;55635;50.264;11.918;2023-04-24T14:12:31;1.50;;;1.40;;
40945;SDS011;55635;50.264;11.918;2023-04-24T14:15:12;1.38;;;1.27;;
40945;SDS011;55635;50.264;11.918;2023-04-24T14:17:53;2.17;;;1.70;;
40945;SDS011;55635;50.264;11.918;2023-04-24T14:20:34;1.50;;;1.40;;
40945;SDS011;55635;50.264;11.918;2023-04-24T14:23:15;1.83;;;1.67;;
40945;SDS011;55635;50.264;11.918;2023-04-24T14:25:59;2.08;;;1.92;;
40945;SDS011;55635;50.264;11.918;2023-04-24T14:28:40;1.80;;;1.67;;
40945;SDS011;55635;50.264;11.918;2023-04-24T14:31:22;2.25;;;1.40;;
40945;SDS011;55635;50.264;11.918;2023-04-24T14:34:03;2.72;;;1.70;;
40945;SDS011;55635;50.264;11.918;2023-04-24T14:36:43;1.80;;;1.38;;
40945;SDS011;55635;50.264;11.918;2023-04-24T14:39:25;3.60;;;1.70;;
40945;SDS011;55635;50.264;11.918;2023-04-24T14:42:05;1.92;;;1.52;;
40945;SDS011;55635;50.264;11.918;2023-04-24T14:44:46;2.20;;;1.60;;
40945;SDS011;55635;50.264;11.918;2023-04-24T14:47:27;3.20;;;1.70;;
40945;SDS011;55635;50.264;11.918;2023-04-24T14:50:10;2.00;;;1.52;;
40945;SDS011;55635;50.264;11.918;2023-04-24T14:52:54;1.60;;;1.50;;
40945;SDS011;55635;50.264;11.918;2023-04-24T14:55:39;1.60;;;1.50;;
40945;SDS011;55635;50.264;11.918;2023-04-24T14:58:20;1.50;;;1.23;;
40945;SDS011;55635;50.264;11.918;2023-04-24T15:01:01;1.35;;;1.25;;
40945;SDS011;55635;50.264;11.918;2023-04-24T15:03:42;1.50;;;1.40;;
40945;SDS011;55635;50.264;11.918;2023-04-24T15:06:25;1.92;;;1.80;;
40945;SDS011;55635;50.264;11.918;2023-04-24T15:09:06;2.45;;;1.60;;
40945;SDS011;55635;50.264;11.918;2023-04-24T15:11:48;2.30;;;2.03;;
40945;SDS011;55635;50.264;11.918;2023-04-24T15:14:29;4.28;;;2.33;;
40945;SDS011;55635;50.264;11.918;2023-04-24T15:17:10;2.88;;;2.38;;
40945;SDS011;55635;50.264;11.918;2023-04-24T15:19:51;1.80;;;1.70;;
40945;SDS011;55635;50.264;11.918;2023-04-24T15:22:32;3.40;;;2.00;;
40945;SDS011;55635;50.264;11.918;2023-04-24T15:25:14;2.22;;;1.90;;
40945;SDS011;55635;50.264;11.918;2023-04-24T15:27:55;1.38;;;1.35;;
40945;SDS011;55635;50.264;11.918;2023-04-24T15:30:36;1.60;;;1.50;;
40945;SDS011;55635;50.264;11.918;2023-04-24T15:33:17;2.25;;;2.05;;
40945;SDS011;55635;50.264;11.918;2023-04-24T15:35:58;1.88;;;1.77;;
40945;SDS011;55635;50.264;11.918;2023-04-24T15:38:39;1.83;;;1.73;;
40945;SDS011;55635;50.264;11.918;2023-04-24T15:41:20;2.15;;;1.95;;
40945;SDS011;55635;50.264;11.918;2023-04-24T15:44:03;1.60;;;1.50;;
40945;SDS011;55635;50.264;11.918;2023-04-24T15:46:50;2.28;;;1.90;;
40945;SDS011;55635;50.264;11.918;2023-04-24T15:49:31;1.90;;;1.80;;
40945;SDS011;55635;50.264;11.918;2023-04-24T15:52:12;1.77;;;1.67;;
40945;SDS011;55635;50.264;11.918;2023-04-24T15:54:53;1.92;;;1.70;;
40945;SDS011;55635;50.264;11.918;2023-04-24T15:57:35;2.00;;;1.80;;
40945;SDS011;55635;50.264;11.918;2023-04-24T16:00:16;3.30;;;2.17;;
40945;SDS011;55635;50.264;11.918;2023-04-24T16:02:57;2.35;;;1.90;;
40945;SDS011;55635;50.264;11.918;2023-04-24T16:05:39;2.17;;;1.98;;
40945;SDS011;55635;50.264;11.918;2023-04-24T16:08:20;2.10;;;1.90;;
40945;SDS011;55635;50.264;11.918;2023-04-24T16:11:03;2.15;;;1.95;;